Time;durP1;ratioP1;P1;durP2;ratioP2;P2;SDS_P1;SDS_P2;PMS_P1;PMS_P2;Temp;Humidity;BMP_temperature;BMP_pressure;BME280_temperature;BME280_humidity;BME280_pressure;Samples;Min_cycle;Max_cycle;Signal;HPM_P1;HPM_P2
2022/05/16 00:01:51;;;;;;;2.03;1.83;;;;;;;;;;12477140;28;20033;-76
2022/05/16 00:07:53;;;;;;;2.08;1.85;;;;;;;;;;12493311;28;20525;-77
2022/05/16 00:13:54;;;;;;;;;;;;;;;;;;12494682;28;20037;-77
2022/05/16 00:19:56;;;;;;;1.63;1.53;;;;;;;;;;12494343;28;19909;-77
2022/05/16 00:25:58;;;;;;;1.92;1.83;;;;;;;;;;12494351;28;20411;-77
2022/05/16 00:32:00;;;;;;;2.95;2.33;;;;;;;;;;12494353;28;20395;-77
2022/05/16 00:38:03;;;;;;;1.80;1.70;;;;;;;;;;12477240;28;20072;-77
2022/05/16 00:44:04;;;;;;;2.35;2.15;;;;;;;;;;12493777;28;20395;-76
2022/05/16 00:50:07;;;;;;;2.42;2.03;;;;;;;;;;12494947;28;20375;-77
2022/05/16 00:56:08;;;;;;;2.58;2.03;;;;;;;;;;12493423;28;20045;-77
2022/05/16 01:08:34;;;;;;;2.10;1.90;;;;;;;;;;12478204;28;20494;-77
2022/05/16 01:14:38;;;;;;;2.17;1.92;;;;;;;;;;12484237;28;20041;-77
2022/05/16 01:20:49;;;;;;;2.72;2.22;;;;;;;;;;12500516;28;20029;-77
2022/05/16 01:26:52;;;;;;;2.60;2.20;;;;;;;;;;12483715;28;20045;-77
2022/05/16 01:32:54;;;;;;;2.60;2.40;;;;;;;;;;12501316;28;20048;-77
2022/05/16 01:38:56;;;;;;;;;;;;;;;;;;12502244;28;20029;-77
2022/05/16 01:44:58;;;;;;;3.33;2.20;;;;;;;;;;12467057;28;19921;-77
2022/05/16 01:51:01;;;;;;;2.60;2.30;;;;;;;;;;12482613;28;20372;-77
2022/05/16 01:57:03;;;;;;;3.25;2.08;;;;;;;;;;12482333;28;20520;-77
2022/05/16 02:03:08;;;;;;;2.67;2.47;;;;;;;;;;12466369;28;20038;-77
2022/05/16 02:09:09;;;;;;;3.42;2.33;;;;;;;;;;12481642;28;20057;-77
2022/05/16 02:15:12;;;;;;;2.40;2.20;;;;;;;;;;12481510;28;20060;-77
2022/05/16 02:27:34;;;;;;;3.05;2.45;;;;;;;;;;12498598;28;20049;-78
2022/05/16 02:33:36;;;;;;;4.22;2.67;;;;;;;;;;12480940;28;20394;-77
2022/05/16 02:39:38;;;;;;;3.85;3.15;;;;;;;;;;12480800;28;20034;-77
2022/05/16 02:45:40;;;;;;;3.20;2.95;;;;;;;;;;12496874;28;20054;-77
2022/05/16 02:51:42;;;;;;;3.40;3.10;;;;;;;;;;12479796;28;20037;-77
2022/05/16 02:57:44;;;;;;;3.70;2.92;;;;;;;;;;12480487;28;20033;-77
2022/05/16 03:03:46;;;;;;;3.83;3.20;;;;;;;;;;12497289;28;20052;-77
2022/05/16 03:09:48;;;;;;;2.83;2.60;;;;;;;;;;12496800;28;20410;-77
2022/05/16 03:15:49;;;;;;;4.03;2.97;;;;;;;;;;12497248;28;20041;-77
2022/05/16 03:21:51;;;;;;;;;;;;;;;;;;12480059;28;20033;-77
2022/05/16 03:27:53;;;;;;;3.07;2.80;;;;;;;;;;12479112;28;19924;-77
2022/05/16 03:33:55;;;;;;;4.20;3.65;;;;;;;;;;12496417;28;20399;-77
2022/05/16 03:46:17;;;;;;;3.92;3.35;;;;;;;;;;12478578;28;20045;-77
2022/05/16 03:52:19;;;;;;;3.10;2.83;;;;;;;;;;12478125;28;20037;-77
2022/05/16 03:58:21;;;;;;;3.53;3.22;;;;;;;;;;12478124;28;20030;-77
2022/05/16 04:04:23;;;;;;;3.38;3.08;;;;;;;;;;12495326;28;20045;-77
2022/05/16 04:10:24;;;;;;;3.97;3.58;;;;;;;;;;12495895;28;20050;-77
2022/05/16 04:16:26;;;;;;;3.30;3.10;;;;;;;;;;12494648;28;20380;-76
2022/05/16 04:22:30;;;;;;;3.88;3.50;;;;;;;;;;12493504;28;20029;-76
2022/05/16 04:28:32;;;;;;;3.58;3.28;;;;;;;;;;12477388;28;20053;-77
2022/05/16 04:34:34;;;;;;;4.68;4.25;;;;;;;;;;12477094;28;20041;-77
2022/05/16 04:42:40;;;;;;;5.75;4.03;;;;;;;;;;12477462;28;20494;-77
2022/05/16 04:46:59;;;;;;;2.72;2.53;;;;;;;;;;12502762;28;20045;-77
2022/05/16 04:53:02;;;;;;;4.70;4.07;;;;;;;;;;12469088;28;20033;-75
2022/05/16 04:59:04;;;;;;;3.05;2.75;;;;;;;;;;12485393;28;20486;-76
2022/05/16 05:05:07;;;;;;;4.10;3.47;;;;;;;;;;12484967;28;20402;-76
2022/05/16 05:17:29;;;;;;;3.92;3.47;;;;;;;;;;12502039;28;20371;-78
2022/05/16 05:23:33;;;;;;;4.85;4.35;;;;;;;;;;12484600;28;20038;-77
2022/05/16 05:29:34;;;;;;;4.22;3.92;;;;;;;;;;12501511;28;20049;-77
2022/05/16 05:35:36;;;;;;;4.40;4.00;;;;;;;;;;12493029;28;20021;-75
2022/05/16 05:41:38;;;;;;;5.15;4.72;;;;;;;;;;12543602;28;20503;-77
2022/05/16 05:47:39;;;;;;;3.35;3.05;;;;;;;;;;12529676;28;20036;-77
2022/05/16 05:53:42;;;;;;;5.15;4.65;;;;;;;;;;12525473;28;20028;-77
2022/05/16 05:59:43;;;;;;;;;;;;;;;;;;12533269;28;20390;-77
2022/05/16 06:05:45;;;;;;;5.00;4.50;;;;;;;;;;12540748;28;19943;-78
2022/05/16 06:11:48;;;;;;;4.63;4.22;;;;;;;;;;12517761;28;20060;-78
2022/05/16 06:17:50;;;;;;;4.57;4.18;;;;;;;;;;12536357;28;20036;-79
2022/05/16 06:23:52;;;;;;;4.45;3.88;;;;;;;;;;12553045;28;20032;-79
2022/05/16 06:29:53;;;;;;;4.97;3.58;;;;;;;;;;12532628;28;20044;-78
2022/05/16 06:35:56;;;;;;;3.10;2.80;;;;;;;;;;12507427;28;20052;-79
2022/05/16 06:41:57;;;;;;;4.10;3.80;;;;;;;;;;12505001;28;21453;-79
2022/05/16 06:48:00;;;;;;;3.88;3.58;;;;;;;;;;12539868;28;20040;-78
2022/05/16 06:54:01;;;;;;;3.63;3.33;;;;;;;;;;12551746;28;20032;-77
2022/05/16 07:00:04;;;;;;;3.60;3.30;;;;;;;;;;12553022;28;20087;-79
2022/05/16 07:06:06;;;;;;;4.03;2.67;;;;;;;;;;12526951;28;20032;-79
2022/05/16 07:12:08;;;;;;;7.25;3.10;;;;;;;;;;12518195;28;20049;-79
2022/05/16 07:18:11;;;;;;;4.22;3.70;;;;;;;;;;12511322;28;20037;-79
2022/05/16 07:24:12;;;;;;;4.03;3.45;;;;;;;;;;12522683;28;20112;-79
2022/05/16 07:30:14;;;;;;;;;;;;;;;;;;12531954;28;20052;-78
2022/05/16 07:36:16;;;;;;;4.17;2.97;;;;;;;;;;12521719;28;19909;-78
2022/05/16 07:42:17;;;;;;;;;;;;;;;;;;12534316;28;20036;-78
2022/05/16 07:48:19;;;;;;;3.53;3.20;;;;;;;;;;12502707;28;19925;-78
2022/05/16 07:54:21;;;;;;;3.97;2.80;;;;;;;;;;12458747;28;20083;-79
2022/05/16 08:00:24;;;;;;;2.20;2.10;;;;;;;;;;12477438;28;20072;-78
2022/05/16 08:06:27;;;;;;;4.05;3.65;;;;;;;;;;12472856;28;20549;-79
2022/05/16 08:12:30;;;;;;;3.60;2.88;;;;;;;;;;12529800;28;20060;-78
2022/05/16 08:18:32;;;;;;;2.83;2.40;;;;;;;;;;12519376;28;20062;-78
2022/05/16 08:24:33;;;;;;;3.70;2.67;;;;;;;;;;12542464;28;20036;-78
2022/05/16 08:30:35;;;;;;;3.92;3.45;;;;;;;;;;12522983;28;20587;-81
2022/05/16 08:43:50;;;;;;;3.63;2.03;;;;;;;;;;12467575;28;20045;-78
2022/05/16 08:49:53;;;;;;;3.30;1.90;;;;;;;;;;12525580;28;20033;-79
2022/05/16 08:55:58;;;;;;;2.53;2.33;;;;;;;;;;12534458;28;20033;-78
2022/05/16 09:02:23;;;;;;;3.72;2.42;;;;;;;;;;12518289;28;20036;-78
2022/05/16 09:08:40;;;;;;;3.10;2.75;;;;;;;;;;12528444;28;20053;-79
2022/05/16 09:15:00;;;;;;;2.47;2.30;;;;;;;;;;12526859;28;20029;-77
2022/05/16 09:21:05;;;;;;;2.80;2.35;;;;;;;;;;12532610;28;20481;-78
2022/05/16 09:27:13;;;;;;;3.25;2.40;;;;;;;;;;12518319;28;20382;-76
2022/05/16 09:33:19;;;;;;;2.83;2.53;;;;;;;;;;12525845;28;20281;-78
2022/05/16 09:39:23;;;;;;;2.83;2.35;;;;;;;;;;12522620;28;20046;-75
2022/05/16 09:45:28;;;;;;;2.83;1.98;;;;;;;;;;12529796;28;20397;-76
2022/05/16 09:51:30;;;;;;;2.67;2.33;;;;;;;;;;12530950;28;20021;-79
2022/05/16 09:57:39;;;;;;;2.83;2.60;;;;;;;;;;12504822;28;20038;-79
2022/05/16 10:03:47;;;;;;;2.85;2.63;;;;;;;;;;12537420;28;20048;-78
2022/05/16 10:09:50;;;;;;;2.92;2.70;;;;;;;;;;12535093;28;20072;-78
2022/05/16 10:15:53;;;;;;;2.03;1.90;;;;;;;;;;12532701;28;20033;-78
2022/05/16 10:21:57;;;;;;;2.67;2.47;;;;;;;;;;12528592;28;20030;-76
2022/05/16 10:28:00;;;;;;;2.75;2.55;;;;;;;;;;12530003;28;20040;-78
2022/05/16 10:34:12;;;;;;;2.85;2.65;;;;;;;;;;12532307;28;20033;-84
2022/05/16 10:40:30;;;;;;;2.92;1.92;;;;;;;;;;12533946;28;20029;-84
2022/05/16 10:46:35;;;;;;;2.92;2.50;;;;;;;;;;12502722;28;20199;-85
2022/05/16 10:52:43;;;;;;;2.40;2.20;;;;;;;;;;12526088;28;20935;-84
2022/05/16 10:58:57;;;;;;;3.78;2.53;;;;;;;;;;12516472;28;20025;-80
2022/05/16 11:05:18;;;;;;;2.45;2.25;;;;;;;;;;12512241;28;20052;-78
2022/05/16 11:11:27;;;;;;;8.57;2.87;;;;;;;;;;12519202;28;20082;-79
2022/05/16 11:17:38;;;;;;;2.42;2.22;;;;;;;;;;12525619;28;20036;-78
2022/05/16 11:23:59;;;;;;;3.90;3.50;;;;;;;;;;12529219;28;20040;-78
2022/05/16 11:30:09;;;;;;;2.67;2.47;;;;;;;;;;12535009;28;20040;-77
2022/05/16 11:36:44;;;;;;;2.90;2.63;;;;;;;;;;12531083;28;20482;-76
2022/05/16 11:43:05;;;;;;;3.08;2.60;;;;;;;;;;12519244;28;20075;-78
2022/05/16 11:49:19;;;;;;;1.93;1.83;;;;;;;;;;12480214;28;20068;-77
2022/05/16 12:01:47;;;;;;;2.53;2.33;;;;;;;;;;12532384;28;20497;-77
2022/05/16 12:07:57;;;;;;;3.03;2.22;;;;;;;;;;12541333;28;20047;-77
2022/05/16 12:14:10;;;;;;;3.53;2.33;;;;;;;;;;12484169;28;20064;-77
2022/05/16 12:20:12;;;;;;;3.00;2.20;;;;;;;;;;12460388;28;20072;-78
2022/05/16 12:26:34;;;;;;;3.33;2.40;;;;;;;;;;12499614;28;20044;-76
2022/05/16 12:32:36;;;;;;;2.58;2.38;;;;;;;;;;12523989;28;20392;-77
2022/05/16 12:38:37;;;;;;;2.15;1.95;;;;;;;;;;12532655;28;20021;-77
2022/05/16 12:45:01;;;;;;;6.05;3.70;;;;;;;;;;12532856;28;20037;-77
2022/05/16 12:51:06;;;;;;;3.15;2.90;;;;;;;;;;12531930;28;20496;-77
2022/05/16 12:57:31;;;;;;;2.67;2.47;;;;;;;;;;12492654;28;20029;-78
2022/05/16 13:03:45;;;;;;;2.58;2.38;;;;;;;;;;12515449;28;20095;-76
2022/05/16 13:09:53;;;;;;;5.32;3.80;;;;;;;;;;12542007;28;20063;-76
2022/05/16 13:16:06;;;;;;;4.28;2.88;;;;;;;;;;12523509;28;20052;-77
2022/05/16 13:22:12;;;;;;;3.28;2.55;;;;;;;;;;12509010;28;20838;-76
2022/05/16 13:34:52;;;;;;;4.18;3.20;;;;;;;;;;12483883;28;20449;-78
2022/05/16 13:40:54;;;;;;;6.93;3.42;;;;;;;;;;12485198;28;20079;-80
2022/05/16 13:47:00;;;;;;;3.13;2.83;;;;;;;;;;12487279;28;20104;-78
2022/05/16 13:53:02;;;;;;;4.90;2.85;;;;;;;;;;12505390;28;20096;-77
2022/05/16 13:59:03;;;;;;;4.40;3.53;;;;;;;;;;12538965;28;20017;-78
2022/05/16 14:05:10;;;;;;;3.40;3.00;;;;;;;;;;12590160;28;20040;-78
2022/05/16 14:11:17;;;;;;;3.70;3.20;;;;;;;;;;12598153;28;20436;-78
2022/05/16 14:17:40;;;;;;;3.40;3.13;;;;;;;;;;12597713;28;20047;-78
2022/05/16 14:23:43;;;;;;;4.72;3.60;;;;;;;;;;12579586;28;20040;-78
2022/05/16 14:29:55;;;;;;;4.70;4.00;;;;;;;;;;12579862;28;20040;-78
2022/05/16 14:36:05;;;;;;;4.68;3.35;;;;;;;;;;12579285;28;20039;-78
2022/05/16 14:42:09;;;;;;;4.22;3.60;;;;;;;;;;12579840;28;20043;-78
2022/05/16 14:48:11;;;;;;;4.22;3.67;;;;;;;;;;12597366;28;20028;-77
2022/05/16 14:54:21;;;;;;;3.42;2.67;;;;;;;;;;12596873;28;20039;-77
2022/05/16 15:06:44;;;;;;;;;;;;;;;;;;12578673;28;20504;-78
2022/05/16 15:12:46;;;;;;;4.18;2.90;;;;;;;;;;12596059;28;19912;-78
2022/05/16 15:18:47;;;;;;;3.22;2.58;;;;;;;;;;12578519;28;20036;-78
2022/05/16 15:24:55;;;;;;;4.40;2.85;;;;;;;;;;12596557;28;20385;-78
2022/05/16 15:30:57;;;;;;;3.13;2.20;;;;;;;;;;12596319;28;20032;-78
2022/05/16 15:36:59;;;;;;;2.80;2.60;;;;;;;;;;12578322;28;20043;-78
2022/05/16 15:43:01;;;;;;;4.93;3.30;;;;;;;;;;12595739;28;20033;-77
2022/05/16 15:49:04;;;;;;;3.92;2.90;;;;;;;;;;12595462;28;20044;-77
2022/05/16 15:55:07;;;;;;;2.92;2.15;;;;;;;;;;12577421;28;20040;-78
2022/05/16 16:01:09;;;;;;;2.70;2.50;;;;;;;;;;12595339;28;20035;-78
2022/05/16 16:13:31;;;;;;;2.63;2.20;;;;;;;;;;12595199;28;20041;-77
2022/05/16 16:19:38;;;;;;;4.30;2.60;;;;;;;;;;12575949;28;20044;-77
2022/05/16 16:25:40;;;;;;;4.88;3.15;;;;;;;;;;12592673;28;20043;-77
2022/05/16 16:31:42;;;;;;;6.85;3.30;;;;;;;;;;12593212;28;20047;-77
2022/05/16 16:37:45;;;;;;;7.75;3.17;;;;;;;;;;12592396;28;20028;-77
2022/05/16 16:43:47;;;;;;;5.68;2.95;;;;;;;;;;12602654;28;20037;-76
2022/05/16 16:49:49;;;;;;;6.07;3.40;;;;;;;;;;12584421;28;20485;-77
2022/05/16 17:02:17;;;;;;;4.00;3.22;;;;;;;;;;12601713;28;20547;-77
2022/05/16 17:08:19;;;;;;;4.97;3.55;;;;;;;;;;12600289;28;20048;-77
2022/05/16 17:14:21;;;;;;;3.25;2.92;;;;;;;;;;12601458;28;20040;-76
2022/05/16 17:20:22;;;;;;;;;;;;;;;;;;12601942;28;20643;-77
2022/05/16 17:26:24;;;;;;;3.13;2.20;;;;;;;;;;12600613;28;20324;-77
2022/05/16 17:32:26;;;;;;;6.43;3.70;;;;;;;;;;12599528;28;20401;-76
2022/05/16 17:38:28;;;;;;;;;;;;;;;;;;12582602;28;20033;-76
2022/05/16 17:44:30;;;;;;;9.18;3.55;;;;;;;;;;12600264;28;19912;-76
2022/05/16 17:50:33;;;;;;;6.20;3.40;;;;;;;;;;12598899;28;20409;-76
2022/05/16 17:56:35;;;;;;;3.45;3.03;;;;;;;;;;12581022;28;20530;-77
2022/05/16 18:02:37;;;;;;;;;;;;;;;;;;12598929;28;20029;-77
2022/05/16 18:08:39;;;;;;;2.58;2.35;;;;;;;;;;12598410;28;19917;-76
2022/05/16 18:14:42;;;;;;;2.65;2.30;;;;;;;;;;12598154;28;20044;-77
2022/05/16 18:20:44;;;;;;;2.25;2.05;;;;;;;;;;12580580;28;20044;-76
2022/05/16 18:26:46;;;;;;;3.50;2.90;;;;;;;;;;12597186;28;20366;-82
2022/05/16 18:32:49;;;;;;;1.92;1.45;;;;;;;;;;12596825;28;20033;-80
2022/05/16 18:38:52;;;;;;;4.80;3.03;;;;;;;;;;12599648;28;20039;-83
2022/05/16 18:51:17;;;;;;;8.85;4.05;;;;;;;;;;12598321;28;20052;-85
2022/05/16 18:57:19;;;;;;;5.13;2.78;;;;;;;;;;12579844;28;20032;-87
2022/05/16 19:03:21;;;;;;;;;;;;;;;;;;12562385;28;20033;-82
2022/05/16 19:09:22;;;;;;;4.40;3.03;;;;;;;;;;12578327;28;19931;-84
2022/05/16 19:15:24;;;;;;;3.53;2.72;;;;;;;;;;12578533;28;20043;-82
2022/05/16 19:21:30;;;;;;;3.47;2.38;;;;;;;;;;12596063;28;20036;-82
2022/05/16 19:27:33;;;;;;;3.17;2.88;;;;;;;;;;12578375;28;20036;-80
2022/05/16 19:33:37;;;;;;;4.55;2.95;;;;;;;;;;12595553;28;20481;-81
2022/05/16 19:39:39;;;;;;;2.88;2.40;;;;;;;;;;12560144;28;20477;-82
2022/05/16 19:45:44;;;;;;;2.35;2.15;;;;;;;;;;12594324;28;20047;-82
2022/05/16 19:51:46;;;;;;;3.55;3.10;;;;;;;;;;12594907;28;20029;-79
2022/05/16 19:57:49;;;;;;;3.65;3.33;;;;;;;;;;12576372;28;20040;-86
2022/05/16 20:03:50;;;;;;;;;;;;;;;;;;12594580;28;20032;-85
2022/05/16 20:09:53;;;;;;;5.37;4.50;;;;;;;;;;12593702;28;19917;-81
2022/05/16 20:15:55;;;;;;;5.88;4.00;;;;;;;;;;12574716;28;20051;-78
2022/05/16 20:28:17;;;;;;;4.95;3.63;;;;;;;;;;12593230;28;19916;-78
2022/05/16 20:34:19;;;;;;;4.28;3.40;;;;;;;;;;12575245;28;20033;-79
2022/05/16 20:40:21;;;;;;;3.20;2.92;;;;;;;;;;12575832;28;20029;-78
2022/05/16 20:46:24;;;;;;;4.20;3.20;;;;;;;;;;12592887;28;20045;-79
2022/05/16 20:52:25;;;;;;;4.38;3.97;;;;;;;;;;12592764;28;20047;-78
2022/05/16 20:58:32;;;;;;;;;;;;;;;;;;12592721;28;20051;-77
2022/05/16 21:04:34;;;;;;;4.50;3.15;;;;;;;;;;12574378;28;19923;-77
2022/05/16 21:10:36;;;;;;;3.22;2.92;;;;;;;;;;12574691;28;20440;-77
2022/05/16 21:16:38;;;;;;;;;;;;;;;;;;12592411;28;20051;-76
2022/05/16 21:22:40;;;;;;;3.65;3.28;;;;;;;;;;12574588;28;19909;-76
2022/05/16 21:28:42;;;;;;;3.20;2.90;;;;;;;;;;12581267;28;20044;-76
2022/05/16 21:34:43;;;;;;;4.00;3.65;;;;;;;;;;12599104;28;20032;-76
2022/05/16 21:40:45;;;;;;;2.50;2.20;;;;;;;;;;12601389;28;20040;-77
2022/05/16 21:46:47;;;;;;;3.45;2.78;;;;;;;;;;12582042;28;20048;-76
2022/05/16 21:52:49;;;;;;;3.97;2.75;;;;;;;;;;12599486;28;20191;-76
2022/05/16 21:58:51;;;;;;;3.22;2.80;;;;;;;;;;12598308;28;20039;-76
2022/05/16 22:04:52;;;;;;;3.35;3.13;;;;;;;;;;12581207;28;20036;-78
2022/05/16 22:10:56;;;;;;;2.15;1.90;;;;;;;;;;12580526;28;20429;-77
2022/05/16 22:16:58;;;;;;;2.40;2.20;;;;;;;;;;12563865;28;20039;-77
2022/05/16 22:23:00;;;;;;;2.70;2.08;;;;;;;;;;12597646;28;20033;-77
2022/05/16 22:29:03;;;;;;;2.22;2.03;;;;;;;;;;12580173;28;20068;-77
2022/05/16 22:35:06;;;;;;;2.25;1.70;;;;;;;;;;12597568;28;20032;-77
2022/05/16 22:41:07;;;;;;;2.83;2.58;;;;;;;;;;12595172;28;20413;-77
2022/05/16 22:47:09;;;;;;;1.60;1.50;;;;;;;;;;12579066;28;20036;-77
2022/05/16 22:53:11;;;;;;;2.72;2.53;;;;;;;;;;12579276;28;20032;-77
2022/05/16 22:59:13;;;;;;;;;;;;;;;;;;12596938;28;20059;-77
2022/05/16 23:05:14;;;;;;;2.95;2.75;;;;;;;;;;12594939;28;19909;-77
2022/05/16 23:11:16;;;;;;;2.35;2.15;;;;;;;;;;12595651;28;20048;-78
2022/05/16 23:17:19;;;;;;;3.55;2.97;;;;;;;;;;12595728;28;20028;-77
2022/05/16 23:23:22;;;;;;;3.25;2.15;;;;;;;;;;12577920;28;20490;-77
2022/05/16 23:29:25;;;;;;;3.17;2.97;;;;;;;;;;12577092;28;20048;-77
2022/05/16 23:35:26;;;;;;;2.55;2.35;;;;;;;;;;12595332;28;20034;-77
2022/05/16 23:41:28;;;;;;;3.70;2.97;;;;;;;;;;12594675;28;20403;-77
2022/05/16 23:47:30;;;;;;;2.65;2.45;;;;;;;;;;12594204;28;20047;-77
2022/05/16 23:53:32;;;;;;;4.15;3.22;;;;;;;;;;12594584;28;20032;-77
2022/05/16 23:59:34;;;;;;;;;;;;;;;;;;12595059;28;20482;-77
